Terminal Aerodrome Forecast
Issued by NWS

Home | Current Version | Previous Version | Text Only | Print | Product List | Glossary On
Versions: 1 2 3 4 5 6 7 8 9 10 11 12 13 14 15 16
363
FTAK31 PAJN 042332
TAFASI
TAF
PASI 042332Z 0500/0524 23009KT P6SM VCSH SCT035 BKN050
     FM050500 19010KT P6SM -RA SCT025 OVC035
     FM050900 14012KT 6SM -RA BR BKN025 OVC035
     FM051400 15012G18KT 4SM -RA BR BKN020 OVC030
     FM052000 18012KT 6SM -RA BR SCT020 OVC040=

USA.gov is the U.S. government's official web portal to all federal, state and local government web resources and services.